sensor_id;sensor_type;location;lat;lon;timestamp;P1;durP1;ratioP1;P2;durP2;ratioP2
2712;SDS011;1366;47.988;7.856;2022-08-18T04:00:13;6.77;;;6.27;;
2712;SDS011;1366;47.988;7.856;2022-08-18T04:02:39;6.47;;;6.07;;
2712;SDS011;1366;47.988;7.856;2022-08-18T04:05:05;6.60;;;6.10;;
2712;SDS011;1366;47.988;7.856;2022-08-18T04:07:31;6.73;;;6.13;;
2712;SDS011;1366;47.988;7.856;2022-08-18T04:09:58;6.40;;;5.90;;
2712;SDS011;1366;47.988;7.856;2022-08-18T04:12:24;7.00;;;6.40;;
2712;SDS011;1366;47.988;7.856;2022-08-18T04:14:50;6.90;;;6.27;;
2712;SDS011;1366;47.988;7.856;2022-08-18T04:17:18;6.63;;;6.13;;
2712;SDS011;1366;47.988;7.856;2022-08-18T04:19:48;7.20;;;6.60;;
2712;SDS011;1366;47.988;7.856;2022-08-18T04:22:15;6.30;;;5.90;;
2712;SDS011;1366;47.988;7.856;2022-08-18T04:24:41;6.47;;;5.97;;
2712;SDS011;1366;47.988;7.856;2022-08-18T04:27:08;6.33;;;5.93;;
2712;SDS011;1366;47.988;7.856;2022-08-18T04:29:34;6.47;;;5.97;;
2712;SDS011;1366;47.988;7.856;2022-08-18T04:32:01;6.43;;;5.87;;
2712;SDS011;1366;47.988;7.856;2022-08-18T04:34:29;7.47;;;6.77;;
2712;SDS011;1366;47.988;7.856;2022-08-18T04:36:56;6.90;;;6.30;;
2712;SDS011;1366;47.988;7.856;2022-08-18T04:39:22;6.00;;;5.60;;
2712;SDS011;1366;47.988;7.856;2022-08-18T04:41:49;6.77;;;6.23;;
2712;SDS011;1366;47.988;7.856;2022-08-18T04:44:16;7.13;;;6.43;;
2712;SDS011;1366;47.988;7.856;2022-08-18T04:46:49;6.57;;;6.17;;
2712;SDS011;1366;47.988;7.856;2022-08-18T04:49:16;5.67;;;5.27;;
2712;SDS011;1366;47.988;7.856;2022-08-18T04:51:44;6.60;;;6.10;;
2712;SDS011;1366;47.988;7.856;2022-08-18T04:54:33;7.00;;;6.40;;
2712;SDS011;1366;47.988;7.856;2022-08-18T04:57:20;7.00;;;6.47;;
2712;SDS011;1366;47.988;7.856;2022-08-18T04:59:48;6.85;;;6.25;;
2712;SDS011;1366;47.988;7.856;2022-08-18T05:02:18;6.83;;;6.23;;
2712;SDS011;1366;47.988;7.856;2022-08-18T05:04:45;7.17;;;6.47;;
2712;SDS011;1366;47.988;7.856;2022-08-18T05:07:11;6.70;;;6.20;;
2712;SDS011;1366;47.988;7.856;2022-08-18T05:09:38;6.90;;;6.33;;
2712;SDS011;1366;47.988;7.856;2022-08-18T05:12:06;7.00;;;6.40;;
2712;SDS011;1366;47.988;7.856;2022-08-18T05:14:32;7.07;;;6.40;;
2712;SDS011;1366;47.988;7.856;2022-08-18T05:17:00;6.72;;;6.13;;
2712;SDS011;1366;47.988;7.856;2022-08-18T05:19:26;7.20;;;6.60;;
2712;SDS011;1366;47.988;7.856;2022-08-18T05:21:54;6.00;;;5.60;;
2712;SDS011;1366;47.988;7.856;2022-08-18T05:24:21;6.87;;;6.37;;
2712;SDS011;1366;47.988;7.856;2022-08-18T05:26:49;7.30;;;6.70;;
2712;SDS011;1366;47.988;7.856;2022-08-18T05:29:15;7.77;;;6.07;;
2712;SDS011;1366;47.988;7.856;2022-08-18T05:31:41;6.50;;;6.00;;
2712;SDS011;1366;47.988;7.856;2022-08-18T05:34:07;6.70;;;6.20;;
2712;SDS011;1366;47.988;7.856;2022-08-18T05:41:43;7.60;;;6.83;;
2712;SDS011;1366;47.988;7.856;2022-08-18T05:44:14;6.77;;;6.23;;
2712;SDS011;1366;47.988;7.856;2022-08-18T05:46:53;6.63;;;6.13;;
2712;SDS011;1366;47.988;7.856;2022-08-18T05:49:20;7.57;;;6.27;;
2712;SDS011;1366;47.988;7.856;2022-08-18T05:51:51;7.17;;;6.00;;
2712;SDS011;1366;47.988;7.856;2022-08-18T05:54:18;6.50;;;5.90;;
2712;SDS011;1366;47.988;7.856;2022-08-18T05:57:04;7.30;;;6.80;;
2712;SDS011;1366;47.988;7.856;2022-08-18T05:59:36;6.93;;;6.43;;
2712;SDS011;1366;47.988;7.856;2022-08-18T06:02:09;7.10;;;6.50;;
2712;SDS011;1366;47.988;7.856;2022-08-18T06:04:41;7.67;;;7.07;;
2712;SDS011;1366;47.988;7.856;2022-08-18T06:07:09;6.40;;;5.90;;
2712;SDS011;1366;47.988;7.856;2022-08-18T06:09:39;6.50;;;6.00;;
2712;SDS011;1366;47.988;7.856;2022-08-18T06:12:12;8.80;;;8.10;;
2712;SDS011;1366;47.988;7.856;2022-08-18T06:14:38;8.50;;;7.87;;
2712;SDS011;1366;47.988;7.856;2022-08-18T06:17:27;7.97;;;7.40;;
2712;SDS011;1366;47.988;7.856;2022-08-18T06:19:58;7.33;;;6.70;;
2712;SDS011;1366;47.988;7.856;2022-08-18T06:24:59;7.60;;;7.00;;
2712;SDS011;1366;47.988;7.856;2022-08-18T06:35:20;7.20;;;6.70;;
2712;SDS011;1366;47.988;7.856;2022-08-18T06:38:03;7.23;;;6.63;;
2712;SDS011;1366;47.988;7.856;2022-08-18T06:40:59;7.63;;;7.03;;
2712;SDS011;1366;47.988;7.856;2022-08-18T06:43:25;7.60;;;7.00;;
2712;SDS011;1366;47.988;7.856;2022-08-18T06:45:52;7.77;;;7.17;;
2712;SDS011;1366;47.988;7.856;2022-08-18T06:51:25;7.10;;;6.50;;
2712;SDS011;1366;47.988;7.856;2022-08-18T06:56:26;8.20;;;7.50;;
2712;SDS011;1366;47.988;7.856;2022-08-18T06:58:52;7.88;;;7.18;;
2712;SDS011;1366;47.988;7.856;2022-08-18T07:01:19;7.87;;;7.10;;
2712;SDS011;1366;47.988;7.856;2022-08-18T07:03:51;7.43;;;6.73;;
2712;SDS011;1366;47.988;7.856;2022-08-18T07:08:51;7.80;;;7.00;;
2712;SDS011;1366;47.988;7.856;2022-08-18T07:13:45;7.47;;;6.60;;
2712;SDS011;1366;47.988;7.856;2022-08-18T07:16:16;7.27;;;6.67;;
2712;SDS011;1366;47.988;7.856;2022-08-18T07:18:42;6.67;;;6.13;;
2712;SDS011;1366;47.988;7.856;2022-08-18T07:21:08;7.87;;;7.10;;
2712;SDS011;1366;47.988;7.856;2022-08-18T07:23:55;8.30;;;7.60;;
2712;SDS011;1366;47.988;7.856;2022-08-18T07:26:22;7.27;;;6.73;;
2712;SDS011;1366;47.988;7.856;2022-08-18T07:28:49;8.13;;;7.53;;
2712;SDS011;1366;47.988;7.856;2022-08-18T07:31:22;7.60;;;6.90;;
2712;SDS011;1366;47.988;7.856;2022-08-18T07:34:12;7.20;;;6.60;;
2712;SDS011;1366;47.988;7.856;2022-08-18T07:36:41;7.20;;;6.70;;
2712;SDS011;1366;47.988;7.856;2022-08-18T07:39:19;7.60;;;6.90;;
2712;SDS011;1366;47.988;7.856;2022-08-18T07:41:49;7.60;;;7.10;;
2712;SDS011;1366;47.988;7.856;2022-08-18T07:44:20;7.77;;;7.17;;
2712;SDS011;1366;47.988;7.856;2022-08-18T07:46:56;7.35;;;6.75;;
2712;SDS011;1366;47.988;7.856;2022-08-18T07:49:25;7.60;;;7.10;;
2712;SDS011;1366;47.988;7.856;2022-08-18T07:52:01;7.77;;;7.17;;
2712;SDS011;1366;47.988;7.856;2022-08-18T07:57:04;7.63;;;6.60;;
2712;SDS011;1366;47.988;7.856;2022-08-18T07:59:35;7.50;;;6.90;;
2712;SDS011;1366;47.988;7.856;2022-08-18T08:07:22;7.60;;;7.00;;
2712;SDS011;1366;47.988;7.856;2022-08-18T08:12:34;7.57;;;7.07;;
2712;SDS011;1366;47.988;7.856;2022-08-18T08:15:13;9.13;;;8.33;;
2712;SDS011;1366;47.988;7.856;2022-08-18T08:25:20;8.47;;;7.63;;
2712;SDS011;1366;47.988;7.856;2022-08-18T08:27:51;7.78;;;7.10;;
2712;SDS011;1366;47.988;7.856;2022-08-18T08:30:19;9.30;;;7.13;;
2712;SDS011;1366;47.988;7.856;2022-08-18T08:38:01;7.47;;;6.80;;
2712;SDS011;1366;47.988;7.856;2022-08-18T08:40:32;7.37;;;6.77;;
2712;SDS011;1366;47.988;7.856;2022-08-18T08:43:09;6.93;;;6.50;;
2712;SDS011;1366;47.988;7.856;2022-08-18T08:45:38;8.07;;;7.47;;
2712;SDS011;1366;47.988;7.856;2022-08-18T08:48:08;8.83;;;8.03;;
2712;SDS011;1366;47.988;7.856;2022-08-18T08:51:10;7.90;;;7.30;;
2712;SDS011;1366;47.988;7.856;2022-08-18T08:53:38;7.67;;;6.93;;
2712;SDS011;1366;47.988;7.856;2022-08-18T08:56:09;9.30;;;8.50;;
2712;SDS011;1366;47.988;7.856;2022-08-18T09:01:04;9.20;;;8.50;;
2712;SDS011;1366;47.988;7.856;2022-08-18T09:03:38;9.27;;;8.47;;
2712;SDS011;1366;47.988;7.856;2022-08-18T09:06:14;7.30;;;6.80;;
2712;SDS011;1366;47.988;7.856;2022-08-18T09:21:47;8.37;;;7.67;;
2712;SDS011;1366;47.988;7.856;2022-08-18T09:26:45;7.70;;;6.90;;
2712;SDS011;1366;47.988;7.856;2022-08-18T09:29:17;7.80;;;7.20;;
2712;SDS011;1366;47.988;7.856;2022-08-18T09:31:47;7.10;;;6.60;;
2712;SDS011;1366;47.988;7.856;2022-08-18T09:42:25;7.13;;;6.63;;
2712;SDS011;1366;47.988;7.856;2022-08-18T09:49:52;6.57;;;6.07;;
2712;SDS011;1366;47.988;7.856;2022-08-18T09:54:50;6.80;;;6.20;;
2712;SDS011;1366;47.988;7.856;2022-08-18T10:05:37;7.07;;;6.57;;
2712;SDS011;1366;47.988;7.856;2022-08-18T10:07:39;6.27;;;5.77;;
2712;SDS011;1366;47.988;7.856;2022-08-18T10:13:04;9.13;;;8.43;;
2712;SDS011;1366;47.988;7.856;2022-08-18T10:15:45;7.67;;;7.07;;
2712;SDS011;1366;47.988;7.856;2022-08-18T10:23:08;8.10;;;6.73;;
2712;SDS011;1366;47.988;7.856;2022-08-18T10:25:41;6.70;;;6.20;;
2712;SDS011;1366;47.988;7.856;2022-08-18T10:28:10;7.00;;;6.50;;
2712;SDS011;1366;47.988;7.856;2022-08-18T10:30:59;7.40;;;6.90;;
2712;SDS011;1366;47.988;7.856;2022-08-18T10:34:09;6.73;;;6.33;;
2712;SDS011;1366;47.988;7.856;2022-08-18T10:36:31;6.87;;;6.33;;
2712;SDS011;1366;47.988;7.856;2022-08-18T10:38:58;9.80;;;9.00;;
2712;SDS011;1366;47.988;7.856;2022-08-18T10:41:26;7.10;;;6.60;;
2712;SDS011;1366;47.988;7.856;2022-08-18T10:43:53;7.07;;;6.47;;
2712;SDS011;1366;47.988;7.856;2022-08-18T10:46:21;7.93;;;7.33;;
2712;SDS011;1366;47.988;7.856;2022-08-18T10:48:58;7.70;;;7.00;;
2712;SDS011;1366;47.988;7.856;2022-08-18T10:52:08;7.87;;;7.13;;
2712;SDS011;1366;47.988;7.856;2022-08-18T10:57:05;7.13;;;6.40;;
2712;SDS011;1366;47.988;7.856;2022-08-18T10:59:38;8.03;;;7.40;;
2712;SDS011;1366;47.988;7.856;2022-08-18T11:04:46;7.60;;;6.83;;
2712;SDS011;1366;47.988;7.856;2022-08-18T11:09:41;7.40;;;6.83;;
2712;SDS011;1366;47.988;7.856;2022-08-18T11:12:09;8.53;;;7.07;;
2712;SDS011;1366;47.988;7.856;2022-08-18T11:14:55;7.20;;;6.70;;
2712;SDS011;1366;47.988;7.856;2022-08-18T11:20:09;8.00;;;7.30;;
2712;SDS011;1366;47.988;7.856;2022-08-18T11:22:36;7.75;;;7.15;;
2712;SDS011;1366;47.988;7.856;2022-08-18T11:25:04;8.03;;;7.30;;
2712;SDS011;1366;47.988;7.856;2022-08-18T11:27:44;6.80;;;6.40;;
2712;SDS011;1366;47.988;7.856;2022-08-18T11:30:10;7.73;;;7.13;;
2712;SDS011;1366;47.988;7.856;2022-08-18T11:32:37;7.20;;;6.70;;
2712;SDS011;1366;47.988;7.856;2022-08-18T11:35:05;7.57;;;6.90;;
2712;SDS011;1366;47.988;7.856;2022-08-18T11:37:43;7.57;;;6.73;;
2712;SDS011;1366;47.988;7.856;2022-08-18T11:42:56;7.80;;;7.23;;
2712;SDS011;1366;47.988;7.856;2022-08-18T11:45:24;8.10;;;7.50;;
2712;SDS011;1366;47.988;7.856;2022-08-18T11:50:43;7.13;;;6.53;;
2712;SDS011;1366;47.988;7.856;2022-08-18T11:53:13;8.30;;;7.70;;
2712;SDS011;1366;47.988;7.856;2022-08-18T11:55:39;7.67;;;7.07;;
2712;SDS011;1366;47.988;7.856;2022-08-18T11:58:05;7.90;;;7.33;;
2712;SDS011;1366;47.988;7.856;2022-08-18T12:03:05;7.70;;;7.10;;
2712;SDS011;1366;47.988;7.856;2022-08-18T12:05:46;7.13;;;6.53;;
2712;SDS011;1366;47.988;7.856;2022-08-18T12:10:46;8.23;;;7.53;;
2712;SDS011;1366;47.988;7.856;2022-08-18T12:13:22;7.10;;;6.60;;
2712;SDS011;1366;47.988;7.856;2022-08-18T12:16:06;8.53;;;7.70;;
2712;SDS011;1366;47.988;7.856;2022-08-18T12:18:32;7.50;;;6.90;;
2712;SDS011;1366;47.988;7.856;2022-08-18T12:20:58;8.80;;;8.00;;
2712;SDS011;1366;47.988;7.856;2022-08-18T12:23:25;9.13;;;8.33;;
2712;SDS011;1366;47.988;7.856;2022-08-18T12:25:52;9.67;;;8.87;;
2712;SDS011;1366;47.988;7.856;2022-08-18T12:28:18;7.87;;;7.30;;
2712;SDS011;1366;47.988;7.856;2022-08-18T12:30:45;8.30;;;7.70;;
2712;SDS011;1366;47.988;7.856;2022-08-18T12:33:11;9.10;;;8.20;;
2712;SDS011;1366;47.988;7.856;2022-08-18T12:35:37;8.63;;;7.97;;
2712;SDS011;1366;47.988;7.856;2022-08-18T12:38:04;9.50;;;8.70;;
2712;SDS011;1366;47.988;7.856;2022-08-18T12:40:30;8.63;;;7.93;;
2712;SDS011;1366;47.988;7.856;2022-08-18T12:42:56;9.90;;;9.10;;
2712;SDS011;1366;47.988;7.856;2022-08-18T12:45:22;9.03;;;8.43;;
2712;SDS011;1366;47.988;7.856;2022-08-18T12:47:50;9.57;;;8.87;;
2712;SDS011;1366;47.988;7.856;2022-08-18T12:50:16;9.07;;;8.37;;
2712;SDS011;1366;47.988;7.856;2022-08-18T12:52:42;9.60;;;8.90;;
2712;SDS011;1366;47.988;7.856;2022-08-18T12:55:08;10.37;;;9.47;;
2712;SDS011;1366;47.988;7.856;2022-08-18T12:57:34;9.60;;;8.73;;
2712;SDS011;1366;47.988;7.856;2022-08-18T13:00:00;9.20;;;8.50;;
2712;SDS011;1366;47.988;7.856;2022-08-18T13:02:26;9.20;;;8.50;;
2712;SDS011;1366;47.988;7.856;2022-08-18T13:04:53;10.20;;;9.30;;
2712;SDS011;1366;47.988;7.856;2022-08-18T13:07:19;9.20;;;8.50;;
2712;SDS011;1366;47.988;7.856;2022-08-18T13:09:45;10.17;;;9.37;;
2712;SDS011;1366;47.988;7.856;2022-08-18T13:12:11;10.63;;;9.63;;
2712;SDS011;1366;47.988;7.856;2022-08-18T13:14:38;10.77;;;9.87;;
2712;SDS011;1366;47.988;7.856;2022-08-18T13:17:04;10.10;;;9.30;;
2712;SDS011;1366;47.988;7.856;2022-08-18T13:19:30;11.70;;;10.80;;
2712;SDS011;1366;47.988;7.856;2022-08-18T13:21:56;9.90;;;9.10;;
2712;SDS011;1366;47.988;7.856;2022-08-18T13:24:22;10.97;;;10.03;;
2712;SDS011;1366;47.988;7.856;2022-08-18T13:26:48;10.20;;;9.40;;
2712;SDS011;1366;47.988;7.856;2022-08-18T13:29:15;9.97;;;9.23;;
2712;SDS011;1366;47.988;7.856;2022-08-18T13:31:42;10.50;;;9.50;;
2712;SDS011;1366;47.988;7.856;2022-08-18T13:34:08;10.17;;;9.33;;
2712;SDS011;1366;47.988;7.856;2022-08-18T13:36:34;10.73;;;9.83;;
2712;SDS011;1366;47.988;7.856;2022-08-18T13:39:16;10.23;;;9.30;;
2712;SDS011;1366;47.988;7.856;2022-08-18T13:41:43;10.20;;;9.40;;
2712;SDS011;1366;47.988;7.856;2022-08-18T13:44:10;11.20;;;9.23;;
2712;SDS011;1366;47.988;7.856;2022-08-18T13:46:37;10.20;;;9.30;;
2712;SDS011;1366;47.988;7.856;2022-08-18T13:49:09;10.53;;;9.73;;
2712;SDS011;1366;47.988;7.856;2022-08-18T13:51:35;9.87;;;9.07;;
2712;SDS011;1366;47.988;7.856;2022-08-18T13:54:01;9.23;;;8.53;;
2712;SDS011;1366;47.988;7.856;2022-08-18T13:56:27;11.80;;;10.80;;
2712;SDS011;1366;47.988;7.856;2022-08-18T13:58:53;10.40;;;9.60;;
2712;SDS011;1366;47.988;7.856;2022-08-18T14:01:19;11.47;;;10.57;;
2712;SDS011;1366;47.988;7.856;2022-08-18T14:03:45;10.63;;;9.73;;
2712;SDS011;1366;47.988;7.856;2022-08-18T14:06:12;11.40;;;10.50;;
2712;SDS011;1366;47.988;7.856;2022-08-18T14:08:39;10.80;;;9.90;;
2712;SDS011;1366;47.988;7.856;2022-08-18T14:11:05;11.60;;;10.70;;
2712;SDS011;1366;47.988;7.856;2022-08-18T14:13:31;12.00;;;10.90;;
2712;SDS011;1366;47.988;7.856;2022-08-18T14:15:57;13.33;;;12.23;;
2712;SDS011;1366;47.988;7.856;2022-08-18T14:18:25;12.33;;;11.13;;
2712;SDS011;1366;47.988;7.856;2022-08-18T14:20:52;11.93;;;10.93;;
2712;SDS011;1366;47.988;7.856;2022-08-18T14:23:38;11.57;;;10.60;;
2712;SDS011;1366;47.988;7.856;2022-08-18T14:26:23;12.67;;;11.50;;
2712;SDS011;1366;47.988;7.856;2022-08-18T14:29:07;11.57;;;10.57;;
2712;SDS011;1366;47.988;7.856;2022-08-18T14:31:33;10.63;;;9.68;;
2712;SDS011;1366;47.988;7.856;2022-08-18T14:33:59;13.20;;;12.00;;
2712;SDS011;1366;47.988;7.856;2022-08-18T14:36:25;11.70;;;10.60;;
2712;SDS011;1366;47.988;7.856;2022-08-18T14:38:51;12.03;;;11.03;;
2712;SDS011;1366;47.988;7.856;2022-08-18T14:41:19;12.10;;;11.10;;
2712;SDS011;1366;47.988;7.856;2022-08-18T14:43:45;11.60;;;10.70;;
2712;SDS011;1366;47.988;7.856;2022-08-18T14:46:11;11.00;;;10.00;;
2712;SDS011;1366;47.988;7.856;2022-08-18T14:48:38;11.10;;;10.27;;
2712;SDS011;1366;47.988;7.856;2022-08-18T14:51:05;11.17;;;10.33;;
2712;SDS011;1366;47.988;7.856;2022-08-18T14:53:32;11.37;;;10.43;;
2712;SDS011;1366;47.988;7.856;2022-08-18T14:55:59;12.15;;;11.13;;
2712;SDS011;1366;47.988;7.856;2022-08-18T14:58:26;11.67;;;10.77;;
2712;SDS011;1366;47.988;7.856;2022-08-18T15:00:53;11.17;;;10.37;;
2712;SDS011;1366;47.988;7.856;2022-08-18T15:03:21;11.97;;;10.90;;
2712;SDS011;1366;47.988;7.856;2022-08-18T15:05:47;10.97;;;10.17;;
2712;SDS011;1366;47.988;7.856;2022-08-18T15:08:13;11.47;;;10.57;;
2712;SDS011;1366;47.988;7.856;2022-08-18T15:10:39;11.70;;;10.80;;
2712;SDS011;1366;47.988;7.856;2022-08-18T15:13:06;11.97;;;10.97;;
2712;SDS011;1366;47.988;7.856;2022-08-18T15:15:33;12.23;;;11.00;;
2712;SDS011;1366;47.988;7.856;2022-08-18T15:17:59;11.60;;;10.60;;
2712;SDS011;1366;47.988;7.856;2022-08-18T15:20:25;12.07;;;11.18;;
2712;SDS011;1366;47.988;7.856;2022-08-18T15:22:52;11.80;;;10.90;;
2712;SDS011;1366;47.988;7.856;2022-08-18T15:25:36;11.57;;;10.67;;
2712;SDS011;1366;47.988;7.856;2022-08-18T15:28:06;11.40;;;10.50;;
2712;SDS011;1366;47.988;7.856;2022-08-18T15:30:32;12.57;;;11.47;;
2712;SDS011;1366;47.988;7.856;2022-08-18T15:33:00;11.50;;;10.60;;
2712;SDS011;1366;47.988;7.856;2022-08-18T15:35:26;11.00;;;10.10;;
2712;SDS011;1366;47.988;7.856;2022-08-18T15:37:52;11.10;;;10.10;;
2712;SDS011;1366;47.988;7.856;2022-08-18T15:40:19;10.43;;;9.43;;
2712;SDS011;1366;47.988;7.856;2022-08-18T15:42:47;11.30;;;10.40;;
2712;SDS011;1366;47.988;7.856;2022-08-18T15:45:14;12.07;;;11.07;;
2712;SDS011;1366;47.988;7.856;2022-08-18T15:47:41;11.67;;;10.67;;
2712;SDS011;1366;47.988;7.856;2022-08-18T15:50:07;11.27;;;10.37;;
2712;SDS011;1366;47.988;7.856;2022-08-18T15:52:33;11.27;;;10.37;;
2712;SDS011;1366;47.988;7.856;2022-08-18T15:55:00;10.30;;;9.50;;
2712;SDS011;1366;47.988;7.856;2022-08-18T15:57:26;11.60;;;10.70;;
2712;SDS011;1366;47.988;7.856;2022-08-18T15:59:54;11.80;;;10.90;;
2712;SDS011;1366;47.988;7.856;2022-08-18T16:02:20;10.83;;;9.80;;
2712;SDS011;1366;47.988;7.856;2022-08-18T16:04:49;11.20;;;10.30;;
2712;SDS011;1366;47.988;7.856;2022-08-18T16:07:17;12.30;;;11.10;;
2712;SDS011;1366;47.988;7.856;2022-08-18T16:09:43;11.43;;;10.37;;
2712;SDS011;1366;47.988;7.856;2022-08-18T16:12:09;11.93;;;10.93;;
2712;SDS011;1366;47.988;7.856;2022-08-18T16:17:03;11.60;;;10.50;;
2712;SDS011;1366;47.988;7.856;2022-08-18T16:19:29;10.33;;;9.50;;
2712;SDS011;1366;47.988;7.856;2022-08-18T16:21:55;10.47;;;9.67;;
2712;SDS011;1366;47.988;7.856;2022-08-18T16:24:21;11.67;;;10.67;;
2712;SDS011;1366;47.988;7.856;2022-08-18T16:26:48;10.50;;;9.73;;
2712;SDS011;1366;47.988;7.856;2022-08-18T16:29:15;11.50;;;10.53;;
2712;SDS011;1366;47.988;7.856;2022-08-18T16:31:41;11.38;;;10.38;;
2712;SDS011;1366;47.988;7.856;2022-08-18T16:34:08;11.20;;;10.30;;
2712;SDS011;1366;47.988;7.856;2022-08-18T16:36:34;10.77;;;9.87;;
2712;SDS011;1366;47.988;7.856;2022-08-18T16:39:00;12.00;;;11.00;;
2712;SDS011;1366;47.988;7.856;2022-08-18T16:41:27;11.10;;;10.10;;
2712;SDS011;1366;47.988;7.856;2022-08-18T16:43:55;10.57;;;9.57;;
2712;SDS011;1366;47.988;7.856;2022-08-18T16:46:22;10.93;;;10.03;;
2712;SDS011;1366;47.988;7.856;2022-08-18T16:48:50;9.90;;;9.20;;
2712;SDS011;1366;47.988;7.856;2022-08-18T16:51:17;11.00;;;10.10;;
2712;SDS011;1366;47.988;7.856;2022-08-18T16:53:45;11.90;;;10.97;;
2712;SDS011;1366;47.988;7.856;2022-08-18T16:56:12;11.23;;;10.33;;
2712;SDS011;1366;47.988;7.856;2022-08-18T16:58:38;9.90;;;9.20;;
2712;SDS011;1366;47.988;7.856;2022-08-18T17:01:23;11.40;;;10.23;;
2712;SDS011;1366;47.988;7.856;2022-08-18T17:04:08;10.00;;;9.20;;
2712;SDS011;1366;47.988;7.856;2022-08-18T17:06:36;10.37;;;9.57;;
2712;SDS011;1366;47.988;7.856;2022-08-18T17:09:02;11.50;;;10.50;;
2712;SDS011;1366;47.988;7.856;2022-08-18T17:11:29;10.67;;;9.77;;
2712;SDS011;1366;47.988;7.856;2022-08-18T17:13:56;10.60;;;9.80;;
2712;SDS011;1366;47.988;7.856;2022-08-18T17:16:24;10.80;;;9.97;;
2712;SDS011;1366;47.988;7.856;2022-08-18T17:18:50;11.43;;;10.40;;
2712;SDS011;1366;47.988;7.856;2022-08-18T17:21:18;10.60;;;9.80;;
2712;SDS011;1366;47.988;7.856;2022-08-18T17:23:44;10.10;;;9.30;;
2712;SDS011;1366;47.988;7.856;2022-08-18T17:26:16;9.70;;;9.00;;
2712;SDS011;1366;47.988;7.856;2022-08-18T17:28:48;10.67;;;9.80;;
2712;SDS011;1366;47.988;7.856;2022-08-18T17:31:15;10.53;;;9.73;;
2712;SDS011;1366;47.988;7.856;2022-08-18T17:33:42;10.27;;;9.40;;
2712;SDS011;1366;47.988;7.856;2022-08-18T17:36:13;11.30;;;10.50;;
2712;SDS011;1366;47.988;7.856;2022-08-18T17:38:44;10.33;;;9.53;;
2712;SDS011;1366;47.988;7.856;2022-08-18T17:41:13;11.17;;;10.30;;
2712;SDS011;1366;47.988;7.856;2022-08-18T17:43:41;11.40;;;10.40;;
2712;SDS011;1366;47.988;7.856;2022-08-18T17:48:43;10.40;;;9.40;;
2712;SDS011;1366;47.988;7.856;2022-08-18T17:51:16;11.07;;;10.20;;
2712;SDS011;1366;47.988;7.856;2022-08-18T17:54:16;11.53;;;10.63;;
2712;SDS011;1366;47.988;7.856;2022-08-18T17:59:13;10.90;;;10.00;;
2712;SDS011;1366;47.988;7.856;2022-08-18T18:01:45;11.50;;;10.60;;
2712;SDS011;1366;47.988;7.856;2022-08-18T18:04:13;12.80;;;11.63;;
2712;SDS011;1366;47.988;7.856;2022-08-18T18:06:40;13.00;;;12.00;;
2712;SDS011;1366;47.988;7.856;2022-08-18T18:09:17;13.33;;;12.27;;
2712;SDS011;1366;47.988;7.856;2022-08-18T18:11:53;13.37;;;12.07;;
2712;SDS011;1366;47.988;7.856;2022-08-18T18:14:20;11.97;;;10.97;;
2712;SDS011;1366;47.988;7.856;2022-08-18T18:19:33;11.93;;;10.93;;
2712;SDS011;1366;47.988;7.856;2022-08-18T18:22:07;12.57;;;11.57;;
2712;SDS011;1366;47.988;7.856;2022-08-18T18:24:35;12.30;;;11.30;;
2712;SDS011;1366;47.988;7.856;2022-08-18T18:27:22;12.57;;;11.43;;
2712;SDS011;1366;47.988;7.856;2022-08-18T18:30:01;13.10;;;11.80;;
2712;SDS011;1366;47.988;7.856;2022-08-18T18:37:37;14.20;;;13.00;;
2712;SDS011;1366;47.988;7.856;2022-08-18T18:40:05;13.50;;;12.30;;
2712;SDS011;1366;47.988;7.856;2022-08-18T18:42:32;14.07;;;12.93;;
2712;SDS011;1366;47.988;7.856;2022-08-18T18:45:00;15.43;;;13.87;;
2712;SDS011;1366;47.988;7.856;2022-08-18T18:52:49;14.93;;;13.63;;
2712;SDS011;1366;47.988;7.856;2022-08-18T18:55:22;14.70;;;13.30;;
2712;SDS011;1366;47.988;7.856;2022-08-18T18:58:11;13.83;;;12.63;;
2712;SDS011;1366;47.988;7.856;2022-08-18T19:00:42;13.97;;;12.73;;
2712;SDS011;1366;47.988;7.856;2022-08-18T19:13:32;14.73;;;13.23;;
2712;SDS011;1366;47.988;7.856;2022-08-18T19:16:03;14.10;;;12.60;;
2712;SDS011;1366;47.988;7.856;2022-08-18T19:18:34;15.40;;;14.17;;
2712;SDS011;1366;47.988;7.856;2022-08-18T19:21:04;14.73;;;13.43;;
2712;SDS011;1366;47.988;7.856;2022-08-18T19:23:37;15.80;;;14.20;;
2712;SDS011;1366;47.988;7.856;2022-08-18T19:26:06;15.23;;;13.73;;
2712;SDS011;1366;47.988;7.856;2022-08-18T19:31:12;13.10;;;12.00;;
2712;SDS011;1366;47.988;7.856;2022-08-18T19:33:41;14.88;;;13.48;;
2712;SDS011;1366;47.988;7.856;2022-08-18T19:43:40;15.43;;;14.13;;
2712;SDS011;1366;47.988;7.856;2022-08-18T19:46:14;13.67;;;12.40;;
2712;SDS011;1366;47.988;7.856;2022-08-18T19:48:57;14.17;;;12.87;;
2712;SDS011;1366;47.988;7.856;2022-08-18T19:56:51;15.03;;;13.67;;
2712;SDS011;1366;47.988;7.856;2022-08-18T20:04:46;15.73;;;14.13;;
2712;SDS011;1366;47.988;7.856;2022-08-18T20:07:54;15.67;;;14.27;;
2712;SDS011;1366;47.988;7.856;2022-08-18T20:15:57;14.17;;;12.77;;
2712;SDS011;1366;47.988;7.856;2022-08-18T20:18:28;14.10;;;12.80;;
2712;SDS011;1366;47.988;7.856;2022-08-18T20:34:26;15.50;;;14.17;;
2712;SDS011;1366;47.988;7.856;2022-08-18T20:36:53;15.63;;;14.23;;
2712;SDS011;1366;47.988;7.856;2022-08-18T20:41:57;16.17;;;14.63;;
2712;SDS011;1366;47.988;7.856;2022-08-18T20:46:59;15.90;;;14.30;;
2712;SDS011;1366;47.988;7.856;2022-08-18T20:51:57;14.70;;;13.30;;
2712;SDS011;1366;47.988;7.856;2022-08-18T20:56:59;13.83;;;12.50;;
2712;SDS011;1366;47.988;7.856;2022-08-18T20:59:30;13.03;;;11.73;;
2712;SDS011;1366;47.988;7.856;2022-08-18T21:01:58;12.77;;;11.27;;
2712;SDS011;1366;47.988;7.856;2022-08-18T21:04:34;11.67;;;10.70;;
2712;SDS011;1366;47.988;7.856;2022-08-18T21:07:00;12.60;;;11.60;;
2712;SDS011;1366;47.988;7.856;2022-08-18T21:09:26;12.97;;;11.70;;
2712;SDS011;1366;47.988;7.856;2022-08-18T21:11:52;13.53;;;12.30;;
2712;SDS011;1366;47.988;7.856;2022-08-18T21:14:23;13.10;;;12.00;;
2712;SDS011;1366;47.988;7.856;2022-08-18T21:16:50;12.93;;;11.77;;
2712;SDS011;1366;47.988;7.856;2022-08-18T21:19:20;12.60;;;11.40;;
2712;SDS011;1366;47.988;7.856;2022-08-18T21:22:05;13.50;;;12.37;;
2712;SDS011;1366;47.988;7.856;2022-08-18T21:24:41;13.67;;;12.40;;
2712;SDS011;1366;47.988;7.856;2022-08-18T21:27:22;12.00;;;11.00;;
2712;SDS011;1366;47.988;7.856;2022-08-18T21:29:50;12.70;;;11.70;;
2712;SDS011;1366;47.988;7.856;2022-08-18T21:32:19;12.30;;;11.30;;
2712;SDS011;1366;47.988;7.856;2022-08-18T21:34:46;10.53;;;9.50;;
2712;SDS011;1366;47.988;7.856;2022-08-18T21:37:14;10.90;;;10.00;;
2712;SDS011;1366;47.988;7.856;2022-08-18T21:39:51;10.70;;;9.70;;
2712;SDS011;1366;47.988;7.856;2022-08-18T21:42:28;9.10;;;8.40;;
2712;SDS011;1366;47.988;7.856;2022-08-18T21:44:56;9.77;;;8.97;;
2712;SDS011;1366;47.988;7.856;2022-08-18T21:47:24;8.97;;;8.17;;
2712;SDS011;1366;47.988;7.856;2022-08-18T21:52:36;8.93;;;8.23;;
2712;SDS011;1366;47.988;7.856;2022-08-18T21:55:04;8.93;;;8.30;;
